Time;durP1;ratioP1;P1;durP2;ratioP2;P2;SDS_P1;SDS_P2;PMS_P1;PMS_P2;Temp;Humidity;BMP_temperature;BMP_pressure;BME280_temperature;BME280_humidity;BME280_pressure;Samples;Min_cycle;Max_cycle;Signal;HPM_P1;HPM_P2
2023/09/19 00:02:42;;;;;;;;;;;;;;;;;;;;;
2023/09/19 00:05:14;;;;;;;1.10;1.02;;;;;;;17.07;63.16;100125.06;4697771;30;20064;-91
2023/09/19 00:07:45;;;;;;;2.80;1.63;;;;;;;16.75;63.13;100079.09;4683630;30;20526;-91
2023/09/19 00:10:15;;;;;;;1.98;1.77;;;;;;;16.85;63.01;100055.66;4697384;30;20509;-91
2023/09/19 00:12:43;;;;;;;2.55;1.75;;;;;;;17.07;62.63;100098.41;4721987;30;20098;-90
2023/09/19 00:15:12;;;;;;;11.73;2.65;;;;;;;17.17;63.38;100111.38;4749903;30;20420;-90
2023/09/19 00:18:15;;;;;;;2.90;1.83;;;;;;;17.51;63.55;100157.28;4750026;30;20132;-91
2023/09/19 00:20:49;;;;;;;3.13;2.03;;;;;;;17.03;64.00;100092.34;4750308;30;20040;-92
2023/09/19 00:24:05;;;;;;;2.42;1.88;;;;;;;17.10;63.31;100071.66;4780987;29;20819;-93
2023/09/19 00:30:37;;;;;;;3.10;2.03;;;;;;;17.35;64.64;100151.66;4751594;30;20125;-95
2023/09/19 00:37:32;;;;;;;;;;;;;;;;;;;;;
2023/09/19 00:47:16;;;;;;;2.30;1.38;;;;;;;16.83;65.47;100091.19;4654254;30;20142;-91
2023/09/19 00:50:03;;;;;;;3.97;2.08;;;;;;;16.76;65.60;100076.38;4648991;30;20145;-91
2023/09/19 00:52:50;;;;;;;;;;;;;;;;;;;;;
2023/09/19 00:55:30;;;;;;;3.10;2.17;;;;;;;17.00;66.04;100113.75;4662572;30;20058;-91
2023/09/19 00:58:34;;;;;;;;;;;;;;;;;;;;;
2023/09/19 01:01:15;;;;;;;1.95;1.77;;;;;;;16.63;66.11;100067.91;4628518;31;20054;-91
2023/09/19 01:04:18;;;;;;;3.40;1.88;;;;;;;16.53;66.40;100068.28;4616336;31;20440;-91
2023/09/19 01:06:56;;;;;;;3.58;2.08;;;;;;;17.11;65.44;100140.03;4611339;31;20052;-91
2023/09/19 01:09:47;;;;;;;3.72;2.42;;;;;;;16.68;65.31;100066.88;4612018;31;20047;-91
2023/09/19 01:12:28;;;;;;;3.17;2.10;;;;;;;16.74;65.37;100053.34;4594539;31;20052;-90
2023/09/19 01:15:11;;;;;;;7.40;2.28;;;;;;;16.82;64.80;100093.91;4626375;30;20157;-91
2023/09/19 01:18:37;;;;;;;3.78;1.73;;;;;;;16.70;64.94;100075.69;4696177;30;20052;-90
2023/09/19 01:21:18;;;;;;;2.30;1.42;;;;;;;16.38;65.69;100064.34;4749879;30;20050;-90
2023/09/19 01:24:21;;;;;;;2.65;1.60;;;;;;;16.95;65.59;100147.72;4797601;29;20043;-89
2023/09/19 01:27:26;;;;;;;2.67;1.55;;;;;;;16.54;65.00;100094.84;4783744;30;20185;-89
2023/09/19 01:29:59;;;;;;;9.02;1.88;;;;;;;16.59;64.21;100070.72;4784741;30;20053;-90
2023/09/19 01:32:29;;;;;;;2.95;2.25;;;;;;;16.70;64.13;100081.91;4784938;30;20036;-89
2023/09/19 01:35:00;;;;;;;1.20;1.10;;;;;;;16.74;64.39;100077.34;4801318;29;20192;-90
2023/09/19 01:37:39;;;;;;;1.73;1.38;;;;;;;16.56;64.20;100038.88;4844400;29;20049;-91
2023/09/19 01:40:20;;;;;;;1.88;1.48;;;;;;;16.66;64.48;100056.28;4860471;29;20057;-90
2023/09/19 01:43:09;;;;;;;1.88;1.52;;;;;;;16.62;64.79;100063.53;4860937;29;20037;-90
2023/09/19 01:46:07;;;;;;;2.50;1.88;;;;;;;17.15;64.51;100142.53;4877678;29;20056;-90
2023/09/19 01:49:06;;;;;;;3.55;1.50;;;;;;;17.11;64.05;100140.03;4860937;29;20093;-91
2023/09/19 01:51:46;;;;;;;1.80;1.70;;;;;;;17.00;64.17;100145.75;4877798;29;20101;-90
2023/09/19 01:54:16;;;;;;;2.45;2.05;;;;;;;16.45;64.67;100056.09;4877291;29;20112;-90
2023/09/19 01:57:01;;;;;;;2.47;1.40;;;;;;;17.08;64.24;100142.81;4877270;29;20097;-89
2023/09/19 01:59:35;;;;;;;2.22;1.42;;;;;;;16.96;63.96;100099.69;4877279;29;20072;-89
2023/09/19 02:02:02;;;;;;;2.13;1.40;;;;;;;16.94;63.88;100074.00;4860157;29;20472;-89
2023/09/19 02:04:34;;;;;;;1.48;1.38;;;;;;;16.74;63.70;100061.34;4877504;29;20037;-91
2023/09/19 02:07:00;;;;;;;2.88;2.17;;;;;;;16.61;63.21;100021.81;4874246;29;20135;-89
2023/09/19 02:09:26;;;;;;;3.35;2.13;;;;;;;16.40;63.90;100036.72;4874823;29;20045;-88
2023/09/19 02:11:52;;;;;;;1.52;1.42;;;;;;;16.47;64.61;100078.22;4874544;29;20591;-89
2023/09/19 02:14:22;;;;;;;2.20;2.00;;;;;;;16.29;64.50;100045.06;4874845;29;20052;-89
2023/09/19 02:17:03;;;;;;;1.38;1.23;;;;;;;16.30;64.46;100014.03;4874788;29;20085;-89
2023/09/19 02:19:30;;;;;;;6.95;2.83;;;;;;;16.54;64.36;100046.91;4874951;29;20048;-88
2023/09/19 02:21:58;;;;;;;2.17;1.70;;;;;;;16.47;64.20;100038.28;4874560;29;20405;-90
2023/09/19 02:24:26;;;;;;;1.98;1.40;;;;;;;16.63;64.33;100072.38;4874868;29;20033;-89
2023/09/19 02:26:52;;;;;;;2.35;1.40;;;;;;;16.52;64.36;100053.22;4873933;29;20049;-89
2023/09/19 02:29:23;;;;;;;1.58;1.48;;;;;;;16.61;64.34;100066.25;4859077;29;20037;-91
2023/09/19 02:31:58;;;;;;;2.00;1.50;;;;;;;16.36;64.02;100020.91;4866376;29;20455;-91
2023/09/19 02:34:27;;;;;;;1.48;1.02;;;;;;;16.52;64.27;100034.59;4859645;29;20080;-90
2023/09/19 02:37:05;;;;;;;3.83;1.95;;;;;;;16.44;63.78;100005.56;4875554;29;20064;-90
2023/09/19 02:39:33;;;;;;;5.57;1.90;;;;;;;16.44;64.55;100016.22;4860460;29;20039;-90
2023/09/19 02:41:59;;;;;;;7.20;2.35;;;;;;;16.40;65.04;100051.84;4876657;29;20035;-90
2023/09/19 02:44:25;;;;;;;2.33;1.13;;;;;;;16.40;64.95;100038.53;4876692;29;20033;-91
2023/09/19 02:46:58;;;;;;;1.00;0.93;;;;;;;16.63;65.22;100077.69;4860150;29;20043;-89
2023/09/19 02:49:43;;;;;;;2.00;1.55;;;;;;;16.63;64.80;100089.22;4876262;29;20046;-90
2023/09/19 02:52:22;;;;;;;2.58;2.22;;;;;;;16.46;64.53;100065.81;4876546;29;20037;-91
2023/09/19 02:55:00;;;;;;;2.25;2.03;;;;;;;16.13;65.18;100057.16;4859873;29;20045;-91
2023/09/19 02:57:29;;;;;;;2.83;2.50;;;;;;;15.91;66.45;100039.22;4876397;29;20052;-90
2023/09/19 03:00:02;;;;;;;4.32;1.52;;;;;;;16.04;66.20;100049.47;4876414;29;20035;-90
2023/09/19 03:02:59;;;;;;;2.22;1.50;;;;;;;16.64;65.88;100124.72;4861146;29;20124;-90
2023/09/19 03:06:21;;;;;;;1.55;1.45;;;;;;;16.19;65.76;100072.94;4876691;29;20064;-91
2023/09/19 03:08:51;;;;;;;2.90;2.03;;;;;;;16.07;66.13;100050.25;4860186;29;20197;-91
2023/09/19 03:11:21;;;;;;;5.07;2.70;;;;;;;16.01;66.33;100022.97;4876535;29;20044;-94
2023/09/19 03:13:51;;;;;;;4.97;3.25;;;;;;;16.27;66.54;100093.97;4848615;29;20048;-90
2023/09/19 03:16:21;;;;;;;2.90;1.45;;;;;;;15.85;66.94;100017.25;4864059;29;20056;-93
2023/09/19 03:18:58;;;;;;;1.67;1.52;;;;;;;16.00;66.76;100040.69;4864943;29;20124;-89
2023/09/19 03:21:23;;;;;;;1.85;1.38;;;;;;;16.04;66.98;100052.13;4844798;29;20033;-86
2023/09/19 03:23:51;;;;;;;5.88;2.42;;;;;;;16.00;67.20;100061.13;4878278;29;20025;-89
2023/09/19 03:26:19;;;;;;;3.05;2.08;;;;;;;15.75;67.45;100033.47;4875893;29;20034;-91
2023/09/19 03:28:45;;;;;;;2.65;1.80;;;;;;;15.90;67.08;100055.22;4861890;29;20113;-86
2023/09/19 03:31:11;;;;;;;2.83;1.95;;;;;;;15.84;66.92;100063.41;4853007;29;20056;-86
2023/09/19 03:33:37;;;;;;;1.45;1.25;;;;;;;15.58;67.12;100044.63;4879990;29;20044;-91
2023/09/19 03:36:09;;;;;;;3.45;1.98;;;;;;;15.61;66.63;100048.97;4880159;29;20081;-90
2023/09/19 03:38:35;;;;;;;3.55;2.67;;;;;;;15.86;66.71;100075.72;4864413;29;20086;-88
2023/09/19 03:41:03;;;;;;;3.30;2.22;;;;;;;15.83;66.16;100049.22;4880416;29;20033;-91
2023/09/19 03:43:57;;;;;;;2.17;1.75;;;;;;;15.78;66.05;100031.66;4879658;29;20040;-89
2023/09/19 03:46:59;;;;;;;3.97;2.63;;;;;;;15.67;66.64;100040.81;4846462;29;20053;-89
2023/09/19 03:49:25;;;;;;;3.40;1.90;;;;;;;15.60;66.85;100033.06;4874966;29;20111;-87
2023/09/19 03:51:50;;;;;;;4.00;2.35;;;;;;;15.58;67.54;100065.91;4879755;29;20053;-86
2023/09/19 03:54:16;;;;;;;1.88;1.73;;;;;;;15.66;67.24;100056.81;4879731;29;20536;-86
2023/09/19 03:56:43;;;;;;;1.40;1.30;;;;;;;15.72;66.92;100051.31;4861811;29;20036;-87
2023/09/19 03:59:12;;;;;;;3.00;2.72;;;;;;;15.45;67.43;100037.94;4861017;29;21045;-87
2023/09/19 04:01:37;;;;;;;3.35;2.22;;;;;;;15.70;67.88;100085.06;4861196;29;20069;-86
2023/09/19 04:04:12;;;;;;;3.65;2.33;;;;;;;15.51;67.74;100061.69;4861515;29;20072;-86
2023/09/19 04:06:56;;;;;;;2.90;1.90;;;;;;;15.48;67.19;100024.56;4858517;29;20068;-85
2023/09/19 04:09:53;;;;;;;2.45;1.65;;;;;;;15.65;67.21;100040.00;4858099;29;20499;-86
2023/09/19 04:15:59;;;;;;;4.47;2.63;;;;;;;15.73;68.07;100067.22;4803389;29;20051;-88
2023/09/19 04:18:25;;;;;;;2.53;1.58;;;;;;;15.73;67.73;100063.69;4799930;29;20053;-87
2023/09/19 04:21:53;;;;;;;8.05;3.00;;;;;;;16.09;68.04;100130.00;4801088;29;20085;-92
2023/09/19 04:24:19;;;;;;;5.20;2.58;;;;;;;15.56;68.56;100066.84;4749551;30;20092;-89
2023/09/19 04:26:51;;;;;;;3.35;3.05;;;;;;;15.61;68.51;100075.56;4742962;30;20618;-89
2023/09/19 04:29:18;;;;;;;3.10;2.20;;;;;;;15.61;68.83;100074.69;4732637;30;20168;-88
2023/09/19 04:31:45;;;;;;;4.25;2.55;;;;;;;15.56;68.83;100067.72;4709539;30;20365;-89
2023/09/19 04:34:17;;;;;;;4.65;1.90;;;;;;;15.50;68.73;100059.06;4731963;30;20543;-88
2023/09/19 04:36:43;;;;;;;11.77;2.78;;;;;;;15.81;69.00;100071.47;4730934;30;20057;-90
2023/09/19 04:39:10;;;;;;;5.00;2.15;;;;;;;15.72;68.74;100069.91;4731766;30;20080;-89
2023/09/19 04:41:38;;;;;;;5.53;3.28;;;;;;;15.91;68.93;100091.53;4740138;30;20125;-87
2023/09/19 04:44:05;;;;;;;12.40;3.92;;;;;;;15.68;68.82;100047.03;4731284;30;20430;-86
2023/09/19 04:46:30;;;;;;;6.13;3.05;;;;;;;15.78;68.45;100061.78;4744365;30;20059;-88
2023/09/19 04:48:56;;;;;;;4.95;3.22;;;;;;;16.43;67.05;100123.63;4735600;30;20467;-87
2023/09/19 04:51:28;;;;;;;2.28;2.10;;;;;;;15.99;66.98;100072.66;4719213;30;20420;-87
2023/09/19 04:53:54;;;;;;;2.55;1.73;;;;;;;15.79;67.70;100084.81;4787518;29;20036;-89
2023/09/19 04:56:20;;;;;;;2.88;1.95;;;;;;;15.75;67.81;100053.88;4859981;29;20056;-88
2023/09/19 04:58:46;;;;;;;3.67;1.92;;;;;;;15.84;67.91;100063.41;4859797;29;20098;-88
2023/09/19 05:01:14;;;;;;;3.55;2.20;;;;;;;16.02;67.79;100086.78;4859399;29;20508;-89
2023/09/19 05:03:39;;;;;;;2.35;1.77;;;;;;;16.09;68.38;100090.97;4872907;29;20028;-86
2023/09/19 05:06:05;;;;;;;2.88;1.85;;;;;;;16.18;67.74;100070.31;4875172;29;20041;-87
2023/09/19 05:08:33;;;;;;;1.65;1.50;;;;;;;16.26;68.29;100085.09;4877531;29;20120;-89
2023/09/19 05:11:02;;;;;;;3.15;2.67;;;;;;;16.24;66.80;100063.00;4877253;29;20113;-89
2023/09/19 05:13:27;;;;;;;3.58;3.03;;;;;;;16.82;67.02;100125.88;4860579;29;20113;-89
2023/09/19 05:16:02;;;;;;;1.58;1.02;;;;;;;16.53;67.20;100070.94;4877519;29;20041;-90
2023/09/19 05:18:28;;;;;;;3.33;2.17;;;;;;;16.49;66.58;100043.53;4850215;29;20048;-89
2023/09/19 05:20:54;;;;;;;2.63;2.08;;;;;;;16.59;67.49;100065.41;4876824;29;20485;-90
2023/09/19 05:23:50;;;;;;;2.60;2.38;;;;;;;16.76;68.34;100031.09;4877215;29;20124;-90
2023/09/19 05:26:44;;;;;;;3.95;2.63;;;;;;;17.66;67.17;100119.38;4802019;29;20074;-91
2023/09/19 05:29:56;;;;;;;;;;;;;;;;;;;;;
2023/09/19 05:32:55;;;;;;;2.63;1.50;;;;;;;17.57;65.84;100022.84;4765102;30;20173;-93
2023/09/19 05:35:22;;;;;;;6.18;2.05;;;;;;;18.14;65.00;100095.38;4764139;30;20047;-89
2023/09/19 05:38:44;;;;;;;3.42;2.45;;;;;;;18.13;64.01;100042.91;4757738;30;20063;-90
2023/09/19 05:41:18;;;;;;;2.53;1.98;;;;;;;18.57;63.74;100057.06;4724685;30;20063;-89
2023/09/19 05:46:50;;;;;;;2.60;2.40;;;;;;;18.59;61.07;100040.97;4742036;30;20531;-91
2023/09/19 05:49:15;;;;;;;4.00;2.80;;;;;;;18.78;60.38;100057.97;4719865;30;20130;-89
2023/09/19 05:52:07;;;;;;;1.45;1.15;;;;;;;19.18;60.45;100065.19;4739828;30;20069;-91
2023/09/19 05:55:06;;;;;;;4.38;2.45;;;;;;;19.62;58.26;100060.47;4729338;30;20060;-90
2023/09/19 05:58:20;;;;;;;2.95;2.33;;;;;;;19.55;58.00;100056.34;4678910;30;20042;-91
2023/09/19 06:11:09;;;;;;;3.58;1.38;;;;;;;20.44;56.66;100047.69;4627613;30;20055;-91
2023/09/19 06:13:48;;;;;;;27.90;4.32;;;;;;;20.82;55.68;100077.03;4626094;30;20203;-88
2023/09/19 06:16:48;;;;;;;;;;;;;;;;;;;;;
2023/09/19 06:19:38;;;;;;;4.40;2.63;;;;;;;21.66;52.52;100062.78;4659573;30;20125;-89
2023/09/19 06:22:23;;;;;;;3.33;2.28;;;;;;;21.89;52.08;100056.13;4655417;30;20054;-90
2023/09/19 06:24:53;;;;;;;5.30;3.13;;;;;;;22.15;50.84;100051.97;4652050;30;20074;-91
2023/09/19 06:27:18;;;;;;;10.95;2.10;;;;;;;22.55;49.96;100056.88;4643175;30;20606;-86
2023/09/19 06:29:44;;;;;;;2.03;1.50;;;;;;;22.71;49.75;100049.66;4642233;30;20085;-83
2023/09/19 06:32:10;;;;;;;2.55;1.73;;;;;;;23.06;49.63;100098.63;4644072;30;20058;-86
2023/09/19 06:34:36;;;;;;;4.38;2.17;;;;;;;23.20;48.55;100046.69;4670556;30;20214;-87
2023/09/19 06:37:03;;;;;;;5.88;1.73;;;;;;;23.24;48.07;100058.13;4726573;30;20143;-87
2023/09/19 06:39:28;;;;;;;5.30;2.40;;;;;;;23.38;47.23;100035.72;4730267;29;20153;-88
2023/09/19 06:41:54;;;;;;;3.80;2.38;;;;;;;23.61;45.98;100061.19;4804898;29;20050;-88
2023/09/19 06:44:25;;;;;;;9.38;2.75;;;;;;;23.54;45.71;100044.56;4827265;29;20034;-89
2023/09/19 06:47:17;;;;;;;2.25;1.35;;;;;;;23.32;46.87;100038.81;4857096;29;20033;-91
2023/09/19 06:50:13;;;;;;;3.67;1.83;;;;;;;24.16;47.41;100091.81;4818124;29;20073;-88
2023/09/19 06:56:12;;;;;;;2.65;1.73;;;;;;;24.12;46.00;100039.94;4830031;29;20415;-88
2023/09/19 06:58:38;;;;;;;3.60;2.03;;;;;;;23.66;45.13;100053.66;4818211;29;20058;-88
2023/09/19 07:01:03;;;;;;;3.58;2.83;;;;;;;23.95;45.57;100069.81;4818606;29;20042;-89
2023/09/19 07:03:29;;;;;;;3.45;2.05;;;;;;;24.09;45.39;100068.94;4818487;29;20101;-88
2023/09/19 07:06:00;;;;;;;3.95;2.97;;;;;;;23.84;45.15;100054.34;4811513;29;20061;-90
2023/09/19 07:08:28;;;;;;;5.40;1.95;;;;;;;24.17;44.40;100042.34;4817964;29;20042;-90
2023/09/19 07:10:56;;;;;;;4.90;1.90;;;;;;;24.73;43.96;100057.53;4810927;29;20126;-90
2023/09/19 07:13:33;;;;;;;2.70;2.35;;;;;;;24.53;43.75;100024.69;4817517;29;20046;-92
2023/09/19 07:15:59;;;;;;;6.93;3.05;;;;;;;24.53;42.95;100005.81;4830554;29;20037;-87
2023/09/19 07:18:25;;;;;;;3.80;2.45;;;;;;;25.00;42.28;100030.47;4819979;29;20110;-90
2023/09/19 07:20:51;;;;;;;3.95;2.53;;;;;;;25.02;43.54;100006.94;4818706;29;20054;-86
2023/09/19 07:23:23;;;;;;;4.95;2.88;;;;;;;25.08;41.90;100029.94;4819002;29;20461;-92
2023/09/19 07:25:50;;;;;;;2.97;2.10;;;;;;;25.04;42.57;99999.63;4818307;29;20058;-89
2023/09/19 07:28:26;;;;;;;3.30;2.72;;;;;;;24.94;42.43;100025.50;4823228;29;20046;-95
2023/09/19 07:30:52;;;;;;;16.88;3.00;;;;;;;25.17;40.78;100007.69;4840271;29;20054;-94
2023/09/19 07:33:20;;;;;;;3.53;2.00;;;;;;;25.66;40.95;100028.50;4842075;29;20160;-95
2023/09/19 07:35:47;;;;;;;5.68;1.77;;;;;;;25.63;40.41;100012.53;4856192;29;20038;-91
2023/09/19 07:38:12;;;;;;;5.45;2.75;;;;;;;25.83;39.67;99996.69;4862163;29;20052;-90
2023/09/19 07:40:38;;;;;;;3.20;2.45;;;;;;;25.86;40.11;100024.34;4874586;29;20025;-91
2023/09/19 07:43:04;;;;;;;3.97;2.35;;;;;;;26.22;40.06;100014.50;4858710;29;20192;-89
2023/09/19 07:45:31;;;;;;;4.28;2.88;;;;;;;26.20;40.61;100000.25;4875800;29;20029;-91
2023/09/19 07:47:56;;;;;;;4.55;3.13;;;;;;;26.68;40.12;100022.78;4875689;29;20096;-91
2023/09/19 07:50:23;;;;;;;1.77;1.55;;;;;;;26.54;39.53;99997.66;4859094;29;20065;-91
2023/09/19 07:52:53;;;;;;;4.35;2.88;;;;;;;26.54;39.24;100010.31;4875502;29;20068;-92
2023/09/19 07:55:20;;;;;;;3.95;3.35;;;;;;;26.44;38.52;99983.09;4858535;29;20574;-91
2023/09/19 07:57:49;;;;;;;4.40;3.63;;;;;;;26.29;39.73;100012.22;4876406;29;20415;-91
2023/09/19 08:00:15;;;;;;;5.65;4.10;;;;;;;26.01;39.17;99971.03;4862464;29;20029;-90
2023/09/19 08:02:41;;;;;;;5.72;3.88;;;;;;;26.48;40.11;99998.13;4878861;29;20148;-91
2023/09/19 08:05:12;;;;;;;5.65;4.85;;;;;;;27.05;38.50;100004.56;4862311;29;20036;-91
2023/09/19 08:07:43;;;;;;;9.60;4.18;;;;;;;26.84;38.73;99971.06;4878966;29;20035;-91
2023/09/19 08:10:13;;;;;;;10.90;2.70;;;;;;;26.96;37.37;99957.41;4861811;29;20041;-92
2023/09/19 08:12:56;;;;;;;6.32;2.22;;;;;;;26.97;37.81;99959.16;4879408;29;20063;-90
2023/09/19 08:18:24;;;;;;;1.73;1.23;;;;;;;26.57;36.50;99974.91;4876995;29;20045;-93
2023/09/19 08:20:53;;;;;;;2.78;2.30;;;;;;;26.64;36.80;99968.03;4862239;29;20061;-91
2023/09/19 08:23:26;;;;;;;2.20;1.52;;;;;;;26.87;38.92;99992.47;4879082;29;20043;-91
2023/09/19 08:25:57;;;;;;;4.57;1.52;;;;;;;26.56;37.21;99948.84;4880281;29;20339;-94
2023/09/19 08:28:38;;;;;;;1.95;1.52;;;;;;;26.96;38.04;99980.94;4862257;29;20194;-92
2023/09/19 08:31:10;;;;;;;2.13;1.33;;;;;;;27.29;36.43;99955.69;4862052;29;20052;-94
2023/09/19 08:33:40;;;;;;;2.95;1.50;;;;;;;26.66;36.24;99928.22;4863377;29;20099;-94
2023/09/19 08:36:08;;;;;;;3.25;1.83;;;;;;;26.59;36.38;99916.16;4862551;29;20037;-94
2023/09/19 08:38:35;;;;;;;1.38;1.10;;;;;;;26.63;36.05;99940.16;4862631;29;20504;-92
2023/09/19 08:41:05;;;;;;;1.10;0.85;;;;;;;26.71;35.93;99957.63;4862169;29;20120;-93
2023/09/19 08:43:33;;;;;;;1.42;1.27;;;;;;;26.62;35.73;99927.59;4881638;29;20037;-92
2023/09/19 08:46:20;;;;;;;4.88;2.08;;;;;;;27.09;36.02;99975.41;4863972;29;20068;-92
2023/09/19 08:49:08;;;;;;;3.22;1.77;;;;;;;26.85;36.65;99951.13;4878634;29;20131;-91
2023/09/19 08:51:44;;;;;;;2.42;1.35;;;;;;;26.92;35.47;99903.66;4878897;29;20060;-92
2023/09/19 08:54:19;;;;;;;2.42;1.20;;;;;;;27.51;35.26;99944.03;4878805;29;20066;-94
2023/09/19 08:56:47;;;;;;;3.55;1.60;;;;;;;27.02;35.79;99904.66;4862160;29;20049;-92
2023/09/19 08:59:14;;;;;;;3.03;1.60;;;;;;;26.86;35.73;99910.41;4851053;29;20034;-91
2023/09/19 09:01:43;;;;;;;1.95;1.25;;;;;;;26.90;36.11;99911.06;4857899;29;20041;-93
2023/09/19 09:04:38;;;;;;;2.05;0.85;;;;;;;26.59;35.98;99917.00;4859857;29;20047;-90
2023/09/19 09:07:04;;;;;;;1.67;1.05;;;;;;;26.56;36.05;99902.88;4895947;29;20033;-91
2023/09/19 09:09:30;;;;;;;2.90;1.50;;;;;;;26.54;35.70;99899.41;4886444;29;20127;-89
2023/09/19 09:12:16;;;;;;;2.25;1.35;;;;;;;27.05;35.35;99953.13;4859097;29;20045;-93
2023/09/19 09:18:18;;;;;;;1.52;1.02;;;;;;;27.03;35.14;99894.69;4733484;30;20032;-92
2023/09/19 09:20:51;;;;;;;5.47;1.13;;;;;;;27.00;35.97;99897.63;4733944;30;20079;-92
2023/09/19 09:23:29;;;;;;;4.28;1.65;;;;;;;26.98;34.95;99882.38;4750778;30;20056;-96
2023/09/19 09:34:07;;;;;;;1.65;0.90;;;;;;;26.70;36.19;99874.75;5644527;23;20031;-95
2023/09/19 09:37:04;;;;;;;1.40;1.20;;;;;;;26.77;36.13;99927.38;5016202;23;20147;-96
2023/09/19 09:39:31;;;;;;;2.17;1.02;;;;;;;26.14;36.61;99841.22;4903825;29;20062;-91
2023/09/19 09:42:09;;;;;;;1.70;1.40;;;;;;;26.65;36.13;99887.75;4914683;29;20047;-88
2023/09/19 09:44:35;;;;;;;1.58;0.93;;;;;;;26.44;35.59;99893.88;4896950;29;20032;-90
2023/09/19 09:50:06;;;;;;;1.77;1.33;;;;;;;25.80;36.49;99815.91;4915900;29;20430;-90
2023/09/19 09:52:44;;;;;;;3.65;2.00;;;;;;;26.04;37.72;99830.28;4901083;29;20036;-89
2023/09/19 09:55:10;;;;;;;8.35;1.85;;;;;;;26.55;37.12;99837.06;4897761;29;20451;-95
2023/09/19 09:57:44;;;;;;;1.95;1.13;;;;;;;26.62;35.75;99856.41;4881502;29;20127;-89
2023/09/19 10:00:42;;;;;;;1.87;1.33;;;;;;;26.31;35.65;99849.88;4915558;29;20036;-90
2023/09/19 10:03:23;;;;;;;3.75;1.42;;;;;;;26.13;36.10;99835.94;4895110;29;20040;-94
2023/09/19 10:06:28;;;;;;;3.03;1.52;;;;;;;26.38;36.13;99827.59;4898838;29;20076;-95
2023/09/19 10:09:17;;;;;;;6.47;2.17;;;;;;;26.71;36.33;99830.47;4895028;29;20036;-94
2023/09/19 10:11:53;;;;;;;2.30;1.27;;;;;;;27.25;35.26;99869.41;4883368;29;20067;-92
2023/09/19 10:14:24;;;;;;;3.42;2.28;;;;;;;27.29;35.88;99870.91;4916353;29;20032;-92
2023/09/19 10:17:00;;;;;;;4.43;2.20;;;;;;;27.14;35.93;99848.63;4917522;29;20064;-91
2023/09/19 10:19:46;;;;;;;4.65;2.50;;;;;;;27.24;35.43;99900.22;4901094;29;20039;-95
2023/09/19 10:22:38;;;;;;;1.67;1.02;;;;;;;26.84;35.12;99801.44;4902635;29;20806;-95
2023/09/19 10:25:08;;;;;;;1.80;1.17;;;;;;;26.91;36.44;99836.97;4912572;29;20036;-95
2023/09/19 10:27:37;;;;;;;2.30;1.08;;;;;;;26.86;36.12;99804.03;4884446;29;20032;-91
2023/09/19 10:30:11;;;;;;;3.30;1.65;;;;;;;27.17;35.43;99821.31;4908554;29;20052;-91
2023/09/19 10:32:46;;;;;;;3.13;2.17;;;;;;;27.03;35.35;99833.28;4918095;29;20119;-92
2023/09/19 10:35:17;;;;;;;6.97;1.63;;;;;;;27.33;35.76;99807.41;4897136;29;20079;-93
2023/09/19 10:37:56;;;;;;;2.25;1.58;;;;;;;27.67;35.38;99791.03;4914759;29;20522;-89
2023/09/19 10:40:45;;;;;;;;;;;;;;;;;;;;;
2023/09/19 10:43:48;;;;;;;3.65;1.55;;;;;;;27.94;34.00;99836.56;4913636;29;20033;-91
2023/09/19 10:46:19;;;;;;;1.63;1.52;;;;;;;27.89;34.86;99794.63;4818614;29;20046;-89
2023/09/19 10:49:06;;;;;;;2.63;1.52;;;;;;;27.99;34.69;99784.72;4818872;29;20050;-89
2023/09/19 10:51:41;;;;;;;2.20;1.60;;;;;;;28.24;34.01;99818.69;4818243;29;20057;-95
2023/09/19 10:54:19;;;;;;;1.33;0.82;;;;;;;28.06;34.39;99783.19;4820767;29;20038;-94
2023/09/19 10:56:51;;;;;;;2.63;1.10;;;;;;;28.00;33.28;99773.72;4812248;29;20042;-92
2023/09/19 10:59:21;;;;;;;2.10;1.20;;;;;;;27.85;33.10;99778.63;4818367;29;20037;-91
2023/09/19 11:01:51;;;;;;;3.75;1.30;;;;;;;27.80;33.55;99766.44;4803182;29;20122;-92
2023/09/19 11:04:36;;;;;;;1.23;0.88;;;;;;;27.64;33.69;99756.06;4818762;29;20101;-92
2023/09/19 11:07:15;;;;;;;1.48;0.95;;;;;;;28.04;33.18;99826.69;4819026;29;20039;-91
2023/09/19 11:09:58;;;;;;;2.15;1.38;;;;;;;27.98;33.42;99800.13;4818678;29;20047;-94
2023/09/19 11:12:40;;;;;;;2.25;1.13;;;;;;;28.07;33.09;99831.00;4802744;29;20077;-89
2023/09/19 11:15:13;;;;;;;1.15;0.85;;;;;;;27.99;33.44;99774.75;4819156;29;20035;-90
2023/09/19 11:17:47;;;;;;;1.60;1.05;;;;;;;28.32;33.52;99766.50;4818775;29;20117;-92
2023/09/19 11:22:56;;;;;;;1.42;0.98;;;;;;;28.81;32.86;99804.69;4848041;29;20040;-92
2023/09/19 11:25:31;;;;;;;5.80;1.65;;;;;;;28.72;34.47;99804.53;4913130;29;20064;-89
2023/09/19 11:28:11;;;;;;;2.83;1.48;;;;;;;28.91;32.56;99789.31;4913633;29;20052;-93
2023/09/19 11:30:43;;;;;;;0.98;0.88;;;;;;;28.66;31.36;99763.53;4896412;29;20036;-87
2023/09/19 11:33:36;;;;;;;2.92;1.63;;;;;;;29.03;31.78;99790.91;4883348;29;20029;-96
2023/09/19 11:36:15;;;;;;;1.43;1.13;;;;;;;28.57;31.54;99740.75;4902989;29;20057;-89
2023/09/19 11:38:44;;;;;;;1.38;1.17;;;;;;;29.19;31.80;99778.66;4897944;29;20111;-91
2023/09/19 11:41:41;;;;;;;3.33;1.58;;;;;;;28.98;32.07;99766.03;4896695;29;20431;-91
2023/09/19 11:44:44;;;;;;;1.75;1.08;;;;;;;28.50;33.28;99778.44;4899249;29;20056;-94
2023/09/19 11:50:54;;;;;;;2.25;1.23;;;;;;;27.74;34.01;99682.97;4801472;29;20118;-94
2023/09/19 11:53:22;;;;;;;1.45;0.90;;;;;;;27.98;33.83;99693.56;4821551;29;20094;-88
2023/09/19 11:58:57;;;;;;;2.47;1.38;;;;;;;28.34;33.49;99707.53;4841932;29;20042;-90
2023/09/19 12:01:33;;;;;;;1.65;1.20;;;;;;;28.56;32.78;99753.47;4824680;29;20129;-89
2023/09/19 12:04:01;;;;;;;2.20;1.80;;;;;;;28.23;33.29;99701.22;4841293;29;20533;-91
2023/09/19 12:07:27;;;;;;;6.60;2.28;;;;;;;27.92;33.12;99681.34;4826223;29;20124;-94
2023/09/19 12:10:11;;;;;;;1.48;1.00;;;;;;;28.13;33.85;99689.50;4825402;29;20046;-91
2023/09/19 12:12:37;;;;;;;2.47;1.63;;;;;;;28.54;33.13;99684.91;4824391;29;20608;-93
2023/09/19 12:15:14;;;;;;;1.95;1.50;;;;;;;28.65;32.84;99673.09;4840689;29;20136;-89
2023/09/19 12:17:44;;;;;;;3.00;1.33;;;;;;;28.77;32.04;99686.56;4825347;29;20647;-92
2023/09/19 12:20:55;;;;;;;1.35;1.25;;;;;;;28.61;33.29;99659.97;4836348;29;20037;-91
2023/09/19 12:23:21;;;;;;;2.08;1.40;;;;;;;28.97;33.19;99693.72;4840420;29;20513;-93
2023/09/19 12:25:59;;;;;;;5.00;1.17;;;;;;;28.98;32.25;99679.16;4839353;29;20105;-95
2023/09/19 12:28:28;;;;;;;3.03;1.45;;;;;;;29.12;31.54;99664.31;4826473;29;20041;-92
2023/09/19 12:31:19;;;;;;;1.92;1.35;;;;;;;28.77;31.95;99654.00;4841244;29;20041;-93
2023/09/19 12:33:45;;;;;;;6.18;2.22;;;;;;;28.92;31.75;99674.31;4767067;30;20048;-90
2023/09/19 12:36:30;;;;;;;2.95;1.58;;;;;;;28.83;32.13;99659.72;4765708;30;20140;-91
2023/09/19 12:39:33;;;;;;;1.67;1.30;;;;;;;28.70;32.24;99668.13;4761939;29;20471;-89
2023/09/19 12:42:10;;;;;;;1.27;0.88;;;;;;;28.28;32.00;99630.28;4824475;29;20502;-94
2023/09/19 12:44:44;;;;;;;0.85;0.60;;;;;;;28.48;31.88;99633.91;4792272;29;20196;-94
2023/09/19 12:47:15;;;;;;;2.67;1.02;;;;;;;28.54;32.28;99676.75;4808052;29;20549;-94
2023/09/19 12:50:29;;;;;;;3.80;1.80;;;;;;;28.94;32.77;99707.59;4810295;29;20072;-93
2023/09/19 12:53:00;;;;;;;4.40;1.25;;;;;;;28.48;32.31;99647.47;4807106;29;20045;-91
2023/09/19 12:55:28;;;;;;;2.30;1.35;;;;;;;28.62;32.73;99657.09;4806486;29;20038;-93
2023/09/19 12:58:19;;;;;;;3.08;2.20;;;;;;;28.84;32.48;99638.84;4806951;29;20137;-94
2023/09/19 13:00:51;;;;;;;7.75;1.25;;;;;;;28.55;32.82;99629.66;4786490;30;20211;-94
2023/09/19 13:03:40;;;;;;;2.03;1.13;;;;;;;28.43;31.86;99638.06;4770846;30;20238;-95
2023/09/19 13:06:16;;;;;;;3.15;1.92;;;;;;;28.66;32.17;99617.00;4786036;30;20039;-95
2023/09/19 13:08:44;;;;;;;4.10;1.63;;;;;;;28.94;31.98;99637.84;4770859;30;20096;-94
2023/09/19 13:11:12;;;;;;;1.40;1.02;;;;;;;29.17;32.31;99651.16;4806181;29;20053;-95
2023/09/19 13:14:28;;;;;;;3.28;2.38;;;;;;;29.11;31.96;99616.41;4824391;29;20037;-95
2023/09/19 13:17:20;;;;;;;1.65;1.42;;;;;;;29.03;31.50;99611.72;4840531;29;20044;-92
2023/09/19 13:20:10;;;;;;;1.73;1.40;;;;;;;28.84;31.33;99601.72;4839320;29;20041;-92
2023/09/19 13:22:58;;;;;;;1.50;1.35;;;;;;;29.28;31.77;99689.03;4840284;29;20061;-91
2023/09/19 13:25:54;;;;;;;0.93;0.70;;;;;;;28.39;32.13;99589.53;4840745;29;20057;-93